Terminal Aerodrome Forecast
Issued by NWS Twin Cities, MN

Home | Current Version | Previous Version | Text Only | Print | Product List | Glossary Off
Versions: 1 2 3 4 5 6 7 8 9 10 11 12 13 14 15 16 17 18 19 20 21 22 23 24 25 26 27 28 29 30 31 32 33 34

000
FTUS43 KMPX 290500
TAFMSP
TAF
KMSP 290540Z 2906/3012 12009KT P6SM VCSH OVC008
      TEMPO 2906/2908 6SM -RA OVC013
     FM290900 14007KT 6SM BR VCSH OVC005
      TEMPO 2911/2915 4SM BR OVC004
     FM291600 20007KT 6SM BR BKN008 OVC025
     FM291900 22006KT P6SM VCSH SCT025 OVC120 PROB30 2919/2923 5SM
      -TSRA OVC025CB
     FM300600 32004KT P6SM SCT020 BKN090=

USA.gov is the U.S. government's official web portal to all federal, state and local government web resources and services.